Time;durP1;ratioP1;P1;durP2;ratioP2;P2;SDS_P1;SDS_P2;PMS_P1;PMS_P2;Temp;Humidity;BMP_temperature;BMP_pressure;BME280_temperature;BME280_humidity;BME280_pressure;Samples;Min_cycle;Max_cycle;Signal;HPM_P1;HPM_P2
2022/03/29 00:01:55;;;;;;;23.23;12.90;;;7.30;99.90;;;;;;5092149;28;20484;-70
2022/03/29 00:04:20;;;;;;;23.02;13.23;;;7.30;99.90;;;;;;5092127;28;20502;-70
2022/03/29 00:06:46;;;;;;;21.02;13.10;;;7.40;99.90;;;;;;5093186;28;20048;-70
2022/03/29 00:09:12;;;;;;;24.80;13.55;;;7.30;99.90;;;;;;5093855;28;20076;-69
2022/03/29 00:11:37;;;;;;;21.77;13.63;;;7.30;99.90;;;;;;5093602;28;20511;-70
2022/03/29 00:14:05;;;;;;;20.33;12.10;;;7.30;99.90;;;;;;5093366;28;20090;-69
2022/03/29 00:16:32;;;;;;;20.13;12.65;;;7.30;99.90;;;;;;5075852;28;20169;-69
2022/03/29 00:18:57;;;;;;;19.33;11.88;;;7.30;99.90;;;;;;5093458;28;20044;-69
2022/03/29 00:21:23;;;;;;;21.13;12.20;;;7.30;99.90;;;;;;5093507;28;20468;-69
2022/03/29 00:23:49;;;;;;;22.42;12.38;;;7.30;99.90;;;;;;5092461;28;20059;-70
2022/03/29 00:26:15;;;;;;;22.25;12.52;;;7.30;99.90;;;;;;5093306;28;20139;-69
2022/03/29 00:28:42;;;;;;;20.20;11.50;;;7.30;99.90;;;;;;5093346;28;20047;-69
2022/03/29 00:31:08;;;;;;;20.20;12.75;;;7.30;99.90;;;;;;5093364;28;20048;-70
2022/03/29 00:33:34;;;;;;;21.65;12.73;;;7.30;99.90;;;;;;5093002;28;20040;-70
2022/03/29 00:36:00;;;;;;;20.85;12.32;;;7.30;99.90;;;;;;5094094;28;20043;-69
2022/03/29 00:38:25;;;;;;;19.10;11.82;;;7.30;99.90;;;;;;5093397;28;20040;-69
2022/03/29 00:40:52;;;;;;;20.88;11.80;;;7.30;99.90;;;;;;5093224;28;20542;-70
2022/03/29 00:43:18;;;;;;;18.08;11.10;;;7.40;99.90;;;;;;5093199;28;20052;-69
2022/03/29 00:45:45;;;;;;;20.27;11.32;;;7.30;99.90;;;;;;5092986;28;20048;-69
2022/03/29 00:48:14;;;;;;;21.17;12.35;;;7.30;99.90;;;;;;5093979;28;20494;-69
2022/03/29 00:50:41;;;;;;;20.35;12.52;;;7.30;99.90;;;;;;5093245;28;20040;-69
2022/03/29 00:53:09;;;;;;;18.77;11.75;;;7.40;99.90;;;;;;5091797;28;20044;-69
2022/03/29 00:55:35;;;;;;;19.48;12.45;;;7.30;99.90;;;;;;5093042;28;20044;-69
2022/03/29 00:58:03;;;;;;;19.23;11.32;;;7.20;99.90;;;;;;5091987;28;20182;-69
2022/03/29 01:00:31;;;;;;;19.58;11.70;;;7.30;99.90;;;;;;5091803;28;20047;-69
2022/03/29 01:02:57;;;;;;;21.13;11.27;;;7.50;99.90;;;;;;5093138;28;20055;-69
2022/03/29 01:05:23;;;;;;;20.67;11.00;;;7.30;99.90;;;;;;5091883;28;20044;-69
2022/03/29 01:07:49;;;;;;;20.63;11.07;;;7.30;99.90;;;;;;5092074;28;20098;-69
2022/03/29 01:10:14;;;;;;;20.90;11.60;;;7.30;99.90;;;;;;5093000;28;20044;-69
2022/03/29 01:12:40;;;;;;;20.05;11.23;;;7.30;99.90;;;;;;5091786;28;20083;-69
2022/03/29 01:15:09;;;;;;;19.00;10.63;;;7.30;99.90;;;;;;5074707;28;20048;-69
2022/03/29 01:17:38;;;;;;;18.67;10.65;;;7.30;99.90;;;;;;5075086;28;20079;-69
2022/03/29 01:20:18;;;;;;;18.92;11.07;;;7.30;99.90;;;;;;5096014;28;20040;-69
2022/03/29 01:22:45;;;;;;;18.55;11.13;;;7.30;99.90;;;;;;5095861;28;20040;-69
2022/03/29 01:25:20;;;;;;;19.70;10.82;;;7.30;99.90;;;;;;5096678;28;20052;-69
2022/03/29 01:27:48;;;;;;;19.50;11.48;;;7.40;99.90;;;;;;5095121;28;20430;-69
2022/03/29 01:30:15;;;;;;;18.48;11.38;;;7.40;99.90;;;;;;5095118;28;20055;-69
2022/03/29 01:32:44;;;;;;;19.15;11.07;;;7.50;99.90;;;;;;5096852;28;20044;-69
2022/03/29 01:35:12;;;;;;;19.17;10.98;;;7.40;99.90;;;;;;5094959;28;20483;-69
2022/03/29 01:37:38;;;;;;;19.27;11.50;;;7.50;99.90;;;;;;5096229;28;20048;-69
2022/03/29 01:40:16;;;;;;;19.73;11.35;;;7.40;99.90;;;;;;5096104;28;20048;-69
2022/03/29 01:42:53;;;;;;;18.08;10.98;;;7.40;99.90;;;;;;5096678;28;20044;-69
2022/03/29 01:45:21;;;;;;;18.75;10.52;;;7.30;99.90;;;;;;5095995;28;20400;-69
2022/03/29 01:47:47;;;;;;;20.10;11.57;;;7.30;99.90;;;;;;5096810;28;20047;-69
2022/03/29 01:50:13;;;;;;;20.65;11.50;;;7.60;99.90;;;;;;5095511;28;20389;-69
2022/03/29 01:52:45;;;;;;;21.38;10.75;;;7.30;99.90;;;;;;5095841;28;20049;-69
2022/03/29 01:55:12;;;;;;;21.08;12.10;;;7.30;99.90;;;;;;5096634;28;20349;-69
2022/03/29 01:57:38;;;;;;;19.02;11.13;;;7.30;99.90;;;;;;5094488;28;20044;-70
2022/03/29 02:02:55;;;;;;;19.38;11.55;;;7.20;99.90;;;;;;5094499;28;20087;-69
2022/03/29 02:05:22;;;;;;;18.90;11.70;;;7.20;99.90;;;;;;5096553;28;20376;-69
2022/03/29 02:07:48;;;;;;;23.33;12.57;;;7.20;99.90;;;;;;5096234;28;20071;-69
2022/03/29 02:10:18;;;;;;;21.52;12.75;;;7.20;99.90;;;;;;5094352;28;20071;-69
2022/03/29 02:12:46;;;;;;;20.77;12.35;;;7.20;99.90;;;;;;5095320;28;20492;-69
2022/03/29 02:15:12;;;;;;;18.88;11.90;;;7.20;99.90;;;;;;5095305;28;20152;-71
2022/03/29 02:17:39;;;;;;;21.52;11.93;;;7.20;99.90;;;;;;5094211;28;20059;-70
2022/03/29 02:20:06;;;;;;;18.92;12.13;;;7.20;99.90;;;;;;5077432;28;20048;-69
2022/03/29 02:22:32;;;;;;;19.63;11.98;;;7.10;99.90;;;;;;5095553;28;20048;-69
2022/03/29 02:24:58;;;;;;;22.00;12.80;;;7.10;99.90;;;;;;5096054;28;20357;-69
2022/03/29 02:27:24;;;;;;;20.75;12.27;;;7.10;99.90;;;;;;5095284;28;20123;-69
2022/03/29 02:29:50;;;;;;;21.00;12.38;;;7.10;99.90;;;;;;5094887;28;20047;-69
2022/03/29 02:32:15;;;;;;;22.67;12.35;;;7.10;99.90;;;;;;5094069;28;20059;-69
2022/03/29 02:34:41;;;;;;;22.27;12.95;;;7.20;99.90;;;;;;5093809;28;20032;-69
2022/03/29 02:37:07;;;;;;;20.38;12.15;;;7.10;99.90;;;;;;5095048;28;20044;-69
2022/03/29 02:39:33;;;;;;;21.90;12.82;;;7.10;99.90;;;;;;5094892;28;20044;-69
2022/03/29 02:41:58;;;;;;;22.48;12.18;;;7.40;99.90;;;;;;5095193;28;20047;-69
2022/03/29 02:44:24;;;;;;;22.77;13.23;;;7.10;99.90;;;;;;5093668;28;20036;-69
2022/03/29 02:46:50;;;;;;;22.63;13.15;;;7.10;99.90;;;;;;5093566;28;20059;-69
2022/03/29 02:49:16;;;;;;;21.65;13.90;;;7.10;99.90;;;;;;5094855;28;20104;-69
2022/03/29 02:51:42;;;;;;;23.02;13.45;;;7.10;99.90;;;;;;5094761;28;20412;-69
2022/03/29 02:54:08;;;;;;;24.73;14.32;;;7.40;99.90;;;;;;5093366;28;20123;-69
2022/03/29 02:56:34;;;;;;;23.58;13.88;;;7.10;99.90;;;;;;5095112;28;20044;-69
2022/03/29 02:59:00;;;;;;;25.30;14.20;;;7.20;99.90;;;;;;5094590;28;20044;-69
2022/03/29 03:01:29;;;;;;;27.48;14.57;;;7.10;99.90;;;;;;5094174;28;20056;-69
2022/03/29 03:03:56;;;;;;;25.23;14.00;;;7.10;99.90;;;;;;5094480;28;20048;-69
2022/03/29 03:06:22;;;;;;;22.15;12.98;;;7.10;99.90;;;;;;5094493;28;20123;-69
2022/03/29 03:08:48;;;;;;;23.17;13.65;;;7.10;99.90;;;;;;5093214;28;20048;-69
2022/03/29 03:11:14;;;;;;;24.17;14.27;;;7.10;99.90;;;;;;5094373;28;20044;-69
2022/03/29 03:13:39;;;;;;;23.52;14.25;;;7.10;99.90;;;;;;5094234;28;20043;-69
2022/03/29 03:16:05;;;;;;;24.63;14.70;;;7.00;99.90;;;;;;5093599;28;20079;-69
2022/03/29 03:18:32;;;;;;;25.55;14.75;;;7.10;99.90;;;;;;5094310;28;20052;-69
2022/03/29 03:20:58;;;;;;;27.23;15.05;;;7.00;99.90;;;;;;5093183;28;20377;-69
2022/03/29 03:23:24;;;;;;;26.25;15.48;;;7.00;99.90;;;;;;5094107;28;20069;-69
2022/03/29 03:25:50;;;;;;;27.38;15.13;;;7.10;99.90;;;;;;5094057;28;20048;-69
2022/03/29 03:28:17;;;;;;;24.73;14.68;;;7.10;99.90;;;;;;5093069;28;20056;-69
2022/03/29 03:30:43;;;;;;;25.63;15.15;;;7.10;99.90;;;;;;5094033;28;20075;-69
2022/03/29 03:33:08;;;;;;;25.83;14.82;;;7.10;99.90;;;;;;5076354;28;20054;-69
2022/03/29 03:35:34;;;;;;;24.27;14.07;;;7.10;99.90;;;;;;5094124;28;20126;-69
2022/03/29 03:38:00;;;;;;;23.27;13.48;;;7.20;99.90;;;;;;5093921;28;20040;-69
2022/03/29 03:40:26;;;;;;;26.52;14.20;;;7.10;99.90;;;;;;5093969;28;20361;-69
2022/03/29 03:42:51;;;;;;;22.02;14.30;;;7.00;99.90;;;;;;5093183;28;20048;-69
2022/03/29 03:45:17;;;;;;;24.30;15.00;;;7.00;99.90;;;;;;5093724;28;20044;-69
2022/03/29 03:47:43;;;;;;;26.45;14.73;;;7.10;99.90;;;;;;5092498;28;20052;-69
2022/03/29 03:50:09;;;;;;;24.33;14.23;;;7.10;99.90;;;;;;5092162;28;20048;-69
2022/03/29 03:52:35;;;;;;;22.65;12.75;;;7.00;99.90;;;;;;5094278;28;20143;-69
2022/03/29 03:55:01;;;;;;;26.10;13.70;;;7.10;99.90;;;;;;5093376;28;20127;-69
2022/03/29 03:57:27;;;;;;;27.80;15.02;;;7.10;99.90;;;;;;5092789;28;20130;-69
2022/03/29 03:59:55;;;;;;;26.70;15.35;;;7.10;99.90;;;;;;5093670;28;20134;-69
2022/03/29 04:02:22;;;;;;;25.45;13.45;;;7.00;99.90;;;;;;5093787;28;20117;-71
2022/03/29 04:04:48;;;;;;;22.58;12.70;;;7.00;99.90;;;;;;5093231;28;20480;-69
2022/03/29 04:07:14;;;;;;;23.55;13.65;;;7.00;99.90;;;;;;5075709;28;20126;-69
2022/03/29 04:09:39;;;;;;;26.42;14.50;;;7.00;99.90;;;;;;5093566;28;20047;-70
2022/03/29 04:12:06;;;;;;;25.92;15.40;;;7.00;99.90;;;;;;5093503;28;20475;-69
2022/03/29 04:14:32;;;;;;;28.08;14.43;;;7.00;99.90;;;;;;5093244;28;20155;-69
2022/03/29 04:16:58;;;;;;;33.63;16.02;;;7.00;99.90;;;;;;5093998;28;20044;-69
2022/03/29 04:19:24;;;;;;;27.58;15.20;;;7.00;99.90;;;;;;5092401;28;20047;-69
2022/03/29 04:21:50;;;;;;;29.63;15.13;;;7.00;99.90;;;;;;5092822;28;20040;-69
2022/03/29 04:24:16;;;;;;;26.08;14.90;;;7.00;99.90;;;;;;5093468;28;20044;-69
2022/03/29 04:26:42;;;;;;;27.13;14.80;;;7.10;99.90;;;;;;5092253;28;20071;-69
2022/03/29 04:29:07;;;;;;;29.23;15.57;;;7.10;99.90;;;;;;5093414;28;20036;-69
2022/03/29 04:31:33;;;;;;;25.63;13.70;;;7.10;99.90;;;;;;5092276;28;20472;-69
2022/03/29 04:34:00;;;;;;;25.70;14.77;;;7.10;99.90;;;;;;5093245;28;20036;-70
2022/03/29 04:36:27;;;;;;;23.65;14.20;;;7.10;99.90;;;;;;5093841;28;20055;-69
2022/03/29 04:38:53;;;;;;;24.13;14.32;;;7.10;99.90;;;;;;5092155;28;20412;-69
2022/03/29 04:41:19;;;;;;;28.48;15.02;;;7.10;99.90;;;;;;5093790;28;20048;-69
2022/03/29 04:43:45;;;;;;;25.10;13.32;;;7.10;99.90;;;;;;5093128;28;20036;-69
2022/03/29 04:46:10;;;;;;;27.58;13.70;;;7.10;99.90;;;;;;5092338;28;20055;-69
2022/03/29 04:48:36;;;;;;;25.80;13.70;;;7.10;99.90;;;;;;5093493;28;20357;-69
2022/03/29 04:51:02;;;;;;;22.27;13.15;;;7.10;99.90;;;;;;5093316;28;20048;-69
2022/03/29 04:53:28;;;;;;;25.70;13.55;;;7.10;99.90;;;;;;5093664;28;20532;-69
2022/03/29 04:55:54;;;;;;;23.92;13.07;;;7.00;99.90;;;;;;5096051;28;20155;-69
2022/03/29 04:58:21;;;;;;;24.10;13.70;;;7.00;99.90;;;;;;5097120;28;20054;-70
2022/03/29 05:00:47;;;;;;;24.02;13.82;;;7.30;99.90;;;;;;5096898;28;20494;-70
2022/03/29 05:03:12;;;;;;;22.15;12.75;;;7.00;99.90;;;;;;5096978;28;20138;-69
2022/03/29 05:05:38;;;;;;;26.98;12.98;;;7.00;99.90;;;;;;5096795;28;20131;-69
2022/03/29 05:08:04;;;;;;;23.92;13.10;;;7.00;99.90;;;;;;5095595;28;20075;-69
2022/03/29 05:10:30;;;;;;;27.48;14.00;;;7.00;99.90;;;;;;5096655;28;20055;-69
2022/03/29 05:12:56;;;;;;;24.75;13.25;;;7.00;99.90;;;;;;5096722;28;20110;-70
2022/03/29 05:15:23;;;;;;;27.33;14.98;;;7.00;99.90;;;;;;5097120;28;20044;-70
2022/03/29 05:17:49;;;;;;;25.67;13.63;;;7.00;99.90;;;;;;5097471;28;20369;-70
2022/03/29 05:20:16;;;;;;;24.20;14.20;;;7.00;99.90;;;;;;5096542;28;20044;-69
2022/03/29 05:22:47;;;;;;;24.63;13.40;;;7.00;99.90;;;;;;5097361;28;20448;-70
2022/03/29 05:25:15;;;;;;;22.08;12.90;;;7.00;99.90;;;;;;5096436;28;20083;-69
2022/03/29 05:27:41;;;;;;;28.48;14.88;;;7.00;99.90;;;;;;5096251;28;20096;-70
2022/03/29 05:30:08;;;;;;;23.08;13.60;;;7.00;99.90;;;;;;5096994;28;20059;-70
2022/03/29 05:32:34;;;;;;;29.02;15.27;;;7.00;99.90;;;;;;5096381;28;20044;-70
2022/03/29 05:35:00;;;;;;;26.70;14.48;;;7.00;99.90;;;;;;5095092;28;20040;-70
2022/03/29 05:37:25;;;;;;;24.65;13.98;;;7.00;99.90;;;;;;5096254;28;20492;-70
2022/03/29 05:39:51;;;;;;;23.98;14.07;;;7.00;99.90;;;;;;5094950;28;20126;-70
2022/03/29 05:42:17;;;;;;;24.73;14.10;;;7.00;99.90;;;;;;5096228;28;20434;-70
2022/03/29 05:44:43;;;;;;;22.92;14.18;;;7.00;99.90;;;;;;5096336;28;20052;-70
2022/03/29 05:49:53;;;;;;;21.55;13.35;;;7.00;99.90;;;;;;5096653;28;20052;-70
2022/03/29 05:52:22;;;;;;;27.67;14.80;;;7.00;99.90;;;;;;5096067;28;20083;-70
2022/03/29 05:54:48;;;;;;;25.58;14.00;;;7.00;99.90;;;;;;5077357;28;20043;-70
2022/03/29 05:57:15;;;;;;;27.13;13.77;;;7.10;99.90;;;;;;5095837;28;20047;-70
2022/03/29 05:59:41;;;;;;;23.65;14.10;;;7.10;99.90;;;;;;5096453;28;20044;-70
2022/03/29 06:02:08;;;;;;;25.08;13.13;;;7.10;99.90;;;;;;5095712;28;20391;-70
2022/03/29 06:04:35;;;;;;;26.50;14.50;;;7.10;99.90;;;;;;5077667;28;20094;-70
2022/03/29 06:07:02;;;;;;;24.00;13.35;;;7.10;99.90;;;;;;5096318;28;20546;-70
2022/03/29 06:09:28;;;;;;;24.40;13.30;;;7.10;99.90;;;;;;5095359;28;20519;-70
2022/03/29 06:11:54;;;;;;;23.63;12.57;;;7.20;99.90;;;;;;5096342;28;20047;-70
2022/03/29 06:14:20;;;;;;;22.38;13.77;;;7.20;99.90;;;;;;5094306;28;20426;-70
2022/03/29 06:16:46;;;;;;;25.02;14.05;;;7.20;99.90;;;;;;5077827;28;20040;-70
2022/03/29 06:19:12;;;;;;;25.10;15.57;;;7.20;99.90;;;;;;5095497;28;20387;-71
2022/03/29 06:21:38;;;;;;;26.23;13.55;;;7.20;99.90;;;;;;5095431;28;20079;-71
2022/03/29 06:24:05;;;;;;;23.80;13.20;;;7.20;99.90;;;;;;5095266;28;20089;-70
2022/03/29 06:26:31;;;;;;;25.70;13.40;;;7.20;99.90;;;;;;5095304;28;20133;-73
2022/03/29 06:28:57;;;;;;;25.70;14.05;;;7.20;99.90;;;;;;5095582;28;20098;-70
2022/03/29 06:31:24;;;;;;;25.70;13.80;;;7.30;99.90;;;;;;5094223;28;20058;-70
2022/03/29 06:33:49;;;;;;;22.60;12.80;;;7.30;99.90;;;;;;5095408;28;20043;-70
2022/03/29 06:36:16;;;;;;;25.73;14.40;;;7.20;99.90;;;;;;5095103;28;20559;-70
2022/03/29 06:38:44;;;;;;;24.60;13.27;;;7.20;99.90;;;;;;5061545;28;20111;-70
2022/03/29 06:41:10;;;;;;;25.98;12.55;;;7.20;99.90;;;;;;5093522;28;20048;-70
2022/03/29 06:43:36;;;;;;;26.67;14.15;;;7.20;99.90;;;;;;5094608;28;20051;-70
2022/03/29 06:46:05;;;;;;;25.80;13.57;;;7.20;99.90;;;;;;5093671;28;20060;-70
2022/03/29 06:48:31;;;;;;;23.63;13.93;;;7.20;99.90;;;;;;5094893;28;20055;-70
2022/03/29 06:50:57;;;;;;;26.38;13.73;;;7.20;99.90;;;;;;5095051;28;20392;-70
2022/03/29 06:53:23;;;;;;;26.17;14.02;;;7.20;99.90;;;;;;5094609;28;20047;-70
2022/03/29 06:55:51;;;;;;;22.85;13.52;;;7.20;99.90;;;;;;5094671;28;20142;-71
2022/03/29 06:58:17;;;;;;;25.88;13.27;;;7.30;99.90;;;;;;5094691;28;20044;-71
2022/03/29 07:00:43;;;;;;;27.50;14.45;;;7.20;99.90;;;;;;5094916;28;20110;-71
2022/03/29 07:03:10;;;;;;;23.65;13.05;;;7.30;99.90;;;;;;5093997;28;20087;-71
2022/03/29 07:05:38;;;;;;;25.20;13.95;;;7.20;99.90;;;;;;5094554;28;20052;-71
2022/03/29 07:08:10;;;;;;;21.42;12.32;;;7.30;99.90;;;;;;5094912;28;20388;-71
2022/03/29 07:13:21;;;;;;;22.02;13.15;;;7.30;99.90;;;;;;5095346;28;20389;-70
2022/03/29 07:15:51;;;;;;;25.40;13.88;;;7.40;99.90;;;;;;5094273;28;20094;-70
2022/03/29 07:18:18;;;;;;;24.85;13.52;;;7.40;99.90;;;;;;5093922;28;20088;-70
2022/03/29 07:20:44;;;;;;;26.65;13.93;;;7.50;99.90;;;;;;5094463;28;20055;-70
2022/03/29 07:23:10;;;;;;;32.03;14.40;;;7.50;99.90;;;;;;5076551;28;20108;-71
2022/03/29 07:25:36;;;;;;;25.30;13.77;;;7.50;99.90;;;;;;5094403;28;20134;-70
2022/03/29 07:28:03;;;;;;;22.85;13.05;;;7.50;99.90;;;;;;5095184;28;20133;-70
2022/03/29 07:30:30;;;;;;;23.55;12.85;;;7.40;99.90;;;;;;5094283;28;20130;-70
2022/03/29 07:32:58;;;;;;;25.60;13.57;;;7.50;99.90;;;;;;5094543;28;20123;-70
2022/03/29 07:35:25;;;;;;;25.92;15.05;;;7.50;99.90;;;;;;5094109;28;20093;-71
2022/03/29 07:37:51;;;;;;;26.77;13.70;;;7.50;99.90;;;;;;5094184;28;20578;-70
2022/03/29 07:40:20;;;;;;;22.38;13.52;;;7.50;99.90;;;;;;5094743;28;20050;-70
2022/03/29 07:42:45;;;;;;;26.30;13.68;;;7.50;99.90;;;;;;5094084;28;20123;-70
2022/03/29 07:45:12;;;;;;;24.30;14.30;;;7.80;99.90;;;;;;5094056;28;20072;-70
2022/03/29 07:47:41;;;;;;;26.23;14.40;;;7.50;99.90;;;;;;5094013;28;20112;-70
2022/03/29 07:50:08;;;;;;;26.50;14.40;;;7.50;99.90;;;;;;5094566;28;20384;-71
2022/03/29 07:52:41;;;;;;;24.75;12.85;;;7.60;99.90;;;;;;5092728;28;20040;-70
2022/03/29 07:55:10;;;;;;;24.33;13.90;;;7.60;99.90;;;;;;5094460;28;20044;-70
2022/03/29 07:57:35;;;;;;;29.73;14.45;;;7.60;99.90;;;;;;5093912;28;20080;-70
2022/03/29 08:00:31;;;;;;;23.77;14.40;;;7.60;99.90;;;;;;5093305;28;20079;-70
2022/03/29 08:02:48;;;;;;;24.23;13.15;;;7.60;99.90;;;;;;5094106;28;20604;-70
2022/03/29 08:05:15;;;;;;;27.20;12.68;;;7.70;99.90;;;;;;5094137;28;20070;-70
2022/03/29 08:07:43;;;;;;;22.85;12.82;;;7.80;99.90;;;;;;5091483;28;20547;-70
2022/03/29 08:10:10;;;;;;;21.77;11.25;;;7.70;99.90;;;;;;5092764;28;20126;-70
2022/03/29 08:12:36;;;;;;;27.13;11.05;;;7.80;99.90;;;;;;5092685;28;20492;-69
2022/03/29 08:15:02;;;;;;;20.42;10.07;;;7.80;99.90;;;;;;5091172;28;20040;-69
2022/03/29 08:17:27;;;;;;;27.45;11.55;;;7.80;99.90;;;;;;5092927;28;20137;-69
2022/03/29 08:19:53;;;;;;;24.50;12.02;;;7.90;99.90;;;;;;5092237;28;20044;-69
2022/03/29 08:22:19;;;;;;;28.60;11.73;;;7.90;99.90;;;;;;5093723;28;20052;-70
2022/03/29 08:24:45;;;;;;;29.20;12.18;;;7.90;99.90;;;;;;5092752;28;20484;-70
2022/03/29 08:27:11;;;;;;;23.17;12.55;;;8.00;99.90;;;;;;5091575;28;20125;-69
2022/03/29 08:29:37;;;;;;;27.25;12.70;;;8.00;99.90;;;;;;5096369;28;20488;-69
2022/03/29 08:32:04;;;;;;;22.60;12.65;;;8.10;99.90;;;;;;5096537;28;20048;-69
2022/03/29 08:34:31;;;;;;;24.20;12.70;;;8.20;99.90;;;;;;5096801;28;20044;-69
2022/03/29 08:36:57;;;;;;;24.48;11.68;;;8.20;99.90;;;;;;5096732;28;20485;-69
2022/03/29 08:39:23;;;;;;;21.33;11.40;;;8.30;99.90;;;;;;5095721;28;20091;-70
2022/03/29 08:42:12;;;;;;;24.35;11.63;;;8.30;99.90;;;;;;5095713;28;20061;-70
2022/03/29 08:44:39;;;;;;;17.95;10.57;;;8.30;99.90;;;;;;5097019;28;20044;-69
2022/03/29 08:47:10;;;;;;;18.13;9.52;;;8.30;99.90;;;;;;5096634;28;20384;-69
2022/03/29 08:49:36;;;;;;;16.95;8.82;;;8.40;99.90;;;;;;5096977;28;20094;-70
2022/03/29 08:52:04;;;;;;;21.33;8.35;;;8.40;99.90;;;;;;5096985;28;20403;-70
2022/03/29 08:54:30;;;;;;;18.20;7.50;;;8.40;99.90;;;;;;5095984;28;20132;-69
2022/03/29 08:56:56;;;;;;;14.30;5.88;;;8.50;99.90;;;;;;5096738;28;20119;-70
2022/03/29 08:59:21;;;;;;;20.00;6.35;;;8.50;99.90;;;;;;5096256;28;20040;-70
2022/03/29 09:01:47;;;;;;;14.48;6.07;;;8.50;99.90;;;;;;5096661;28;20048;-69
2022/03/29 09:04:15;;;;;;;15.18;6.68;;;8.50;99.90;;;;;;5079056;28;20381;-70
2022/03/29 09:07:02;;;;;;;11.93;5.32;;;9.20;99.90;;;;;;5097029;28;20443;-69
2022/03/29 09:09:29;;;;;;;18.73;6.20;;;8.60;99.90;;;;;;5096529;28;20051;-70
2022/03/29 09:11:57;;;;;;;17.88;5.88;;;8.60;99.90;;;;;;5095955;28;20047;-69
2022/03/29 09:14:24;;;;;;;21.20;6.72;;;8.70;99.90;;;;;;5094396;28;20044;-70
2022/03/29 09:16:51;;;;;;;13.48;6.40;;;8.80;99.90;;;;;;5095646;28;20059;-70
2022/03/29 09:19:21;;;;;;;16.90;6.47;;;8.80;99.90;;;;;;5094276;28;20044;-69
2022/03/29 09:21:47;;;;;;;12.68;6.60;;;8.90;99.90;;;;;;5095236;28;20048;-70
2022/03/29 09:24:15;;;;;;;15.50;6.65;;;8.90;99.90;;;;;;5094315;28;20055;-70
2022/03/29 09:26:52;;;;;;;15.38;6.55;;;8.90;99.90;;;;;;5094328;28;20044;-69
2022/03/29 09:29:23;;;;;;;15.70;6.65;;;8.90;99.90;;;;;;5095860;28;20048;-70
2022/03/29 09:32:12;;;;;;;20.40;6.25;;;8.90;99.90;;;;;;5096662;28;20483;-70
2022/03/29 09:34:38;;;;;;;13.60;6.03;;;8.90;99.90;;;;;;5095684;28;20032;-70
2022/03/29 09:37:05;;;;;;;17.45;8.10;;;9.00;99.90;;;;;;5095739;28;20044;-70
2022/03/29 09:39:30;;;;;;;17.58;6.35;;;9.00;99.90;;;;;;5095185;28;20135;-70
2022/03/29 09:41:58;;;;;;;15.25;5.97;;;9.00;99.90;;;;;;5094563;28;20094;-70
2022/03/29 09:44:37;;;;;;;15.82;6.30;;;9.10;99.90;;;;;;5077374;28;20036;-69
2022/03/29 09:47:07;;;;;;;18.42;6.55;;;9.10;99.90;;;;;;5095450;28;20044;-68
2022/03/29 09:49:59;;;;;;;16.95;7.82;;;9.10;99.90;;;;;;5095391;28;20105;-70
2022/03/29 09:52:31;;;;;;;13.27;6.77;;;9.10;99.90;;;;;;5095615;28;20496;-69
2022/03/29 09:55:23;;;;;;;18.27;6.60;;;9.10;99.90;;;;;;5094760;28;20048;-70
2022/03/29 09:57:57;;;;;;;19.23;6.65;;;9.10;99.90;;;;;;5094167;28;20048;-70
2022/03/29 10:00:29;;;;;;;17.83;7.30;;;9.20;99.90;;;;;;5095826;28;20058;-70
2022/03/29 10:02:55;;;;;;;14.35;7.43;;;9.20;99.90;;;;;;5095432;28;20056;-70
2022/03/29 10:05:23;;;;;;;17.77;7.38;;;9.20;99.90;;;;;;5094827;28;20180;-70
2022/03/29 10:10:50;;;;;;;16.50;5.72;;;9.30;99.90;;;;;;5095223;28;20413;-70
2022/03/29 10:13:17;;;;;;;14.77;5.20;;;9.30;99.90;;;;;;5095034;28;20040;-69
2022/03/29 10:15:45;;;;;;;16.58;5.55;;;9.40;99.90;;;;;;5093344;28;20044;-70
2022/03/29 10:18:11;;;;;;;13.05;5.55;;;9.40;99.90;;;;;;5093433;28;20048;-70
2022/03/29 10:20:37;;;;;;;16.17;5.93;;;9.30;99.90;;;;;;5093418;28;20149;-70
2022/03/29 10:23:05;;;;;;;12.85;4.88;;;9.30;99.90;;;;;;5094863;28;20083;-70
2022/03/29 10:25:32;;;;;;;15.82;4.80;;;9.30;99.90;;;;;;5076231;28;20476;-70
2022/03/29 10:28:00;;;;;;;15.63;4.40;;;9.40;99.90;;;;;;5094248;28;20253;-69
2022/03/29 10:30:37;;;;;;;13.68;5.13;;;9.30;99.90;;;;;;5094370;28;20052;-70
2022/03/29 10:33:16;;;;;;;16.63;4.93;;;9.30;99.90;;;;;;5095757;28;20112;-70
2022/03/29 10:36:11;;;;;;;12.45;4.97;;;9.30;99.90;;;;;;5095508;28;20392;-70
2022/03/29 10:38:48;;;;;;;11.85;4.43;;;9.30;99.90;;;;;;5095502;28;20055;-72
2022/03/29 10:41:26;;;;;;;14.52;5.00;;;9.40;99.90;;;;;;5095259;28;20044;-71
2022/03/29 10:44:18;;;;;;;13.00;4.55;;;9.40;99.90;;;;;;5095645;28;20376;-70
2022/03/29 10:46:49;;;;;;;10.80;3.78;;;9.40;99.90;;;;;;5089853;28;20113;-71
2022/03/29 10:49:24;;;;;;;14.43;4.22;;;9.40;99.90;;;;;;5093838;28;20036;-70
2022/03/29 10:51:55;;;;;;;15.35;3.88;;;9.50;99.90;;;;;;5095651;28;20051;-71
2022/03/29 10:54:31;;;;;;;13.65;3.92;;;9.40;99.90;;;;;;5094814;28;20039;-70
2022/03/29 10:57:03;;;;;;;9.50;3.67;;;9.50;99.90;;;;;;5095547;28;20093;-70
2022/03/29 10:59:31;;;;;;;14.90;4.25;;;9.50;99.90;;;;;;5077057;28;20056;-70
2022/03/29 11:02:06;;;;;;;10.90;4.05;;;9.50;99.90;;;;;;5094833;28;20055;-70
2022/03/29 11:04:32;;;;;;;19.00;4.97;;;9.40;99.90;;;;;;5077137;28;20052;-71
2022/03/29 11:07:06;;;;;;;12.80;3.80;;;9.40;99.90;;;;;;5094608;28;20044;-72
2022/03/29 11:09:33;;;;;;;13.63;4.50;;;9.40;99.90;;;;;;5095002;28;20490;-72
2022/03/29 11:11:59;;;;;;;13.77;5.13;;;9.40;99.90;;;;;;5094216;28;20052;-71
2022/03/29 11:14:28;;;;;;;12.90;4.25;;;9.50;99.90;;;;;;5094103;28;20051;-71
2022/03/29 11:17:17;;;;;;;12.43;5.43;;;9.40;99.90;;;;;;5094975;28;20048;-71
2022/03/29 11:19:48;;;;;;;9.93;4.47;;;9.40;99.90;;;;;;5094341;28;20055;-71
2022/03/29 11:22:32;;;;;;;13.23;4.43;;;9.40;99.90;;;;;;5094268;28;20134;-72
2022/03/29 11:25:03;;;;;;;11.27;4.13;;;9.50;99.90;;;;;;5094338;28;20048;-71
2022/03/29 11:27:32;;;;;;;14.82;4.28;;;9.40;99.90;;;;;;5094848;28;20353;-72
2022/03/29 11:29:59;;;;;;;10.98;3.80;;;9.50;99.90;;;;;;5094242;28;20052;-71
2022/03/29 11:32:25;;;;;;;11.38;4.65;;;9.40;99.90;;;;;;5092882;28;20052;-70
2022/03/29 11:34:53;;;;;;;12.40;4.13;;;9.40;99.90;;;;;;5094143;28;20043;-71
2022/03/29 11:37:28;;;;;;;12.52;4.45;;;9.50;99.90;;;;;;5093229;28;20044;-70
2022/03/29 11:39:54;;;;;;;16.50;4.50;;;9.50;99.90;;;;;;5094033;28;20054;-71
2022/03/29 11:42:20;;;;;;;12.68;4.35;;;9.50;99.90;;;;;;5094192;28;20396;-71
2022/03/29 11:44:47;;;;;;;11.40;4.57;;;9.60;99.90;;;;;;5094030;28;20038;-70
2022/03/29 11:47:13;;;;;;;12.43;4.50;;;9.60;99.90;;;;;;5094035;28;20121;-70
2022/03/29 11:49:41;;;;;;;14.65;5.55;;;9.70;99.90;;;;;;5094075;28;20091;-71
2022/03/29 11:52:12;;;;;;;15.73;4.80;;;9.70;99.90;;;;;;5092979;28;20048;-71
2022/03/29 11:54:46;;;;;;;12.95;4.90;;;9.60;99.90;;;;;;5092376;28;20484;-71
2022/03/29 11:57:23;;;;;;;9.52;4.72;;;9.60;99.90;;;;;;5094042;28;20044;-71
2022/03/29 11:59:50;;;;;;;9.65;3.60;;;9.60;99.90;;;;;;5094534;28;20052;-71
2022/03/29 12:02:18;;;;;;;10.35;4.60;;;9.60;99.90;;;;;;5092244;28;20059;-71
2022/03/29 12:04:45;;;;;;;13.48;4.43;;;9.60;99.90;;;;;;5093597;28;20044;-71
2022/03/29 12:07:11;;;;;;;12.52;4.93;;;9.50;99.90;;;;;;5092359;28;20557;-71
2022/03/29 12:09:37;;;;;;;14.88;5.05;;;9.60;99.90;;;;;;5093943;28;20044;-71
2022/03/29 12:12:03;;;;;;;13.10;5.10;;;9.60;99.90;;;;;;5094295;28;20062;-70
2022/03/29 12:14:30;;;;;;;13.55;5.18;;;9.60;99.90;;;;;;5093524;28;20126;-71
2022/03/29 12:17:08;;;;;;;9.02;5.00;;;9.50;99.90;;;;;;5075994;28;20063;-71
2022/03/29 12:19:35;;;;;;;14.45;5.43;;;9.50;99.90;;;;;;5094599;28;20079;-71
2022/03/29 12:22:07;;;;;;;12.52;5.05;;;9.60;99.90;;;;;;5093671;28;20044;-71
2022/03/29 12:24:35;;;;;;;11.18;4.70;;;9.60;99.90;;;;;;5093978;28;20048;-71
2022/03/29 12:27:12;;;;;;;10.85;5.03;;;9.70;99.90;;;;;;5093488;28;20059;-71
2022/03/29 12:29:47;;;;;;;15.13;5.20;;;9.70;99.90;;;;;;5075898;28;20165;-71
2022/03/29 12:32:13;;;;;;;15.20;5.82;;;9.80;99.90;;;;;;5094141;28;20043;-71
2022/03/29 12:34:41;;;;;;;14.48;5.00;;;9.70;99.90;;;;;;5092407;28;20040;-71
2022/03/29 12:37:13;;;;;;;13.85;4.80;;;9.70;99.90;;;;;;5092942;28;20369;-70
2022/03/29 12:39:42;;;;;;;14.25;5.47;;;9.80;99.90;;;;;;5092910;28;20051;-71
2022/03/29 12:42:13;;;;;;;12.55;5.05;;;9.80;99.90;;;;;;5076016;28;20052;-70
2022/03/29 12:44:47;;;;;;;12.77;5.25;;;9.90;99.90;;;;;;5093490;28;20040;-70
2022/03/29 12:47:15;;;;;;;15.85;5.88;;;9.90;99.90;;;;;;5093561;28;20052;-71
2022/03/29 12:49:42;;;;;;;15.43;5.10;;;10.00;99.90;;;;;;5093404;28;20091;-71
2022/03/29 12:52:10;;;;;;;11.25;5.13;;;10.00;99.90;;;;;;5092409;28;20048;-70
2022/03/29 12:54:52;;;;;;;13.30;5.30;;;10.00;99.90;;;;;;5092109;28;20093;-71
2022/03/29 12:57:32;;;;;;;11.63;4.97;;;10.10;99.90;;;;;;5076385;28;20059;-71